Time;durP1;ratioP1;P1;durP2;ratioP2;P2;SDS_P1;SDS_P2;PMS_P1;PMS_P2;Temp;Humidity;BMP_temperature;BMP_pressure;BME280_temperature;BME280_humidity;BME280_pressure;Samples;Min_cycle;Max_cycle;Signal;HPM_P1;HPM_P2
2021/05/22 00:02:05;;;;;;;4.43;1.33;;;;;;;;;;5071738;28;20254;-58
2021/05/22 00:04:32;;;;;;;4.10;1.53;;;;;;;;;;5071676;28;20720;-56
2021/05/22 00:06:58;;;;;;;7.83;1.53;;;;;;;;;;5071839;28;20208;-57
2021/05/22 00:09:26;;;;;;;1.93;1.13;;;;;;;;;;5071880;28;20217;-56
2021/05/22 00:11:52;;;;;;;4.83;1.53;;;;;;;;;;5071616;28;20204;-57
2021/05/22 00:14:19;;;;;;;3.87;1.50;;;;;;;;;;5071474;28;20235;-58
2021/05/22 00:16:45;;;;;;;6.60;1.73;;;;;;;;;;5071574;28;20208;-58
2021/05/22 00:19:12;;;;;;;4.07;1.30;;;;;;;;;;5071712;28;20677;-59
2021/05/22 00:21:38;;;;;;;6.93;1.87;;;;;;;;;;5071262;28;20209;-59
2021/05/22 00:24:05;;;;;;;5.97;1.60;;;;;;;;;;5071357;28;20237;-57
2021/05/22 00:26:33;;;;;;;5.03;1.80;;;;;;;;;;5071292;28;20227;-59
2021/05/22 00:28:59;;;;;;;4.27;1.30;;;;;;;;;;5071417;28;20228;-60
2021/05/22 00:31:26;;;;;;;5.60;1.40;;;;;;;;;;5071434;28;20206;-59
2021/05/22 00:33:52;;;;;;;6.57;1.30;;;;;;;;;;5071512;28;20205;-59
2021/05/22 00:36:19;;;;;;;5.47;1.30;;;;;;;;;;5071437;28;20221;-59
2021/05/22 00:38:45;;;;;;;3.17;1.53;;;;;;;;;;5071349;28;20695;-59
2021/05/22 00:41:12;;;;;;;2.77;1.17;;;;;;;;;;5071484;28;20201;-59
2021/05/22 00:43:39;;;;;;;2.83;1.07;;;;;;;;;;5071293;28;20251;-59
2021/05/22 00:46:06;;;;;;;7.27;1.50;;;;;;;;;;5071288;28;20229;-59
2021/05/22 00:48:32;;;;;;;5.47;1.40;;;;;;;;;;5073447;28;20201;-59
2021/05/22 00:50:59;;;;;;;6.23;1.60;;;;;;;;;;5074575;28;20208;-59
2021/05/22 00:53:25;;;;;;;4.90;1.70;;;;;;;;;;5075019;28;20580;-59
2021/05/22 00:55:52;;;;;;;8.57;1.50;;;;;;;;;;5074816;28;20255;-58
2021/05/22 00:58:18;;;;;;;5.23;1.30;;;;;;;;;;5075128;28;20563;-59
2021/05/22 01:00:47;;;;;;;6.53;1.60;;;;;;;;;;5074229;28;20205;-59
2021/05/22 01:03:16;;;;;;;4.17;1.40;;;;;;;;;;5074756;28;20624;-59
2021/05/22 01:05:44;;;;;;;4.30;1.80;;;;;;;;;;5074359;28;20647;-59
2021/05/22 01:08:13;;;;;;;3.93;1.53;;;;;;;;;;5074601;28;20574;-59
2021/05/22 01:10:40;;;;;;;3.80;1.40;;;;;;;;;;5075222;28;20201;-55
2021/05/22 01:13:06;;;;;;;6.27;1.53;;;;;;;;;;5074254;28;20623;-57
2021/05/22 01:15:33;;;;;;;4.70;1.50;;;;;;;;;;5074108;28;20240;-59
2021/05/22 01:18:00;;;;;;;3.13;1.37;;;;;;;;;;5074277;28;20205;-59
2021/05/22 01:20:32;;;;;;;4.60;1.10;;;;;;;;;;5074136;28;20212;-59
2021/05/22 01:23:02;;;;;;;4.23;1.40;;;;;;;;;;5074194;28;20201;-56
2021/05/22 01:25:30;;;;;;;5.57;1.50;;;;;;;;;;5074220;28;20236;-58
2021/05/22 01:27:57;;;;;;;5.33;1.47;;;;;;;;;;5074408;28;20235;-57
2021/05/22 01:30:24;;;;;;;5.33;1.30;;;;;;;;;;5073863;28;20270;-59
2021/05/22 01:32:50;;;;;;;5.73;1.53;;;;;;;;;;5074193;28;20621;-57
2021/05/22 01:35:17;;;;;;;6.23;1.10;;;;;;;;;;5073819;28;20232;-59
2021/05/22 01:37:44;;;;;;;4.33;1.40;;;;;;;;;;5074203;28;20212;-59
2021/05/22 01:40:11;;;;;;;6.37;1.10;;;;;;;;;;5073907;28;20258;-56
2021/05/22 01:42:39;;;;;;;5.47;1.67;;;;;;;;;;5073845;28;20209;-59
2021/05/22 01:45:10;;;;;;;4.93;1.77;;;;;;;;;;5073604;28;20225;-59
2021/05/22 01:47:37;;;;;;;5.17;1.33;;;;;;;;;;5073836;28;20588;-59
2021/05/22 01:50:05;;;;;;;4.33;1.40;;;;;;;;;;5073666;28;20209;-57
2021/05/22 01:52:32;;;;;;;3.60;1.30;;;;;;;;;;5073659;28;20204;-57
2021/05/22 01:54:59;;;;;;;4.07;1.43;;;;;;;;;;5073568;28;20294;-58
2021/05/22 01:57:26;;;;;;;8.00;1.40;;;;;;;;;;5073570;28;20205;-59
2021/05/22 01:59:53;;;;;;;5.60;1.40;;;;;;;;;;5073227;28;20205;-60
2021/05/22 02:02:20;;;;;;;5.03;1.30;;;;;;;;;;5073785;28;20743;-59
2021/05/22 02:04:48;;;;;;;2.60;1.03;;;;;;;;;;5073321;28;20229;-59
2021/05/22 02:07:17;;;;;;;5.27;1.60;;;;;;;;;;5073462;28;20208;-57
2021/05/22 02:09:44;;;;;;;2.73;1.03;;;;;;;;;;5073356;28;20212;-59
2021/05/22 02:12:11;;;;;;;5.63;1.60;;;;;;;;;;5073328;28;20266;-60
2021/05/22 02:14:37;;;;;;;4.53;1.33;;;;;;;;;;5072783;28;20225;-58
2021/05/22 02:17:06;;;;;;;6.73;1.70;;;;;;;;;;5073341;28;20204;-54
2021/05/22 02:19:33;;;;;;;5.40;1.80;;;;;;;;;;5073249;28;20220;-59
2021/05/22 02:22:01;;;;;;;5.43;1.53;;;;;;;;;;5072877;28;20201;-58
2021/05/22 02:24:27;;;;;;;5.87;1.47;;;;;;;;;;5072814;28;20709;-57
2021/05/22 02:26:56;;;;;;;4.00;1.47;;;;;;;;;;5072790;28;20215;-57
2021/05/22 02:29:23;;;;;;;2.97;1.00;;;;;;;;;;5072705;28;20681;-59
2021/05/22 02:31:51;;;;;;;6.83;1.40;;;;;;;;;;5072561;28;20220;-59
2021/05/22 02:34:20;;;;;;;4.57;1.63;;;;;;;;;;5072657;28;20233;-59
2021/05/22 02:36:47;;;;;;;4.47;1.30;;;;;;;;;;5072701;28;20212;-59
2021/05/22 02:39:14;;;;;;;4.83;1.43;;;;;;;;;;5072754;28;20212;-59
2021/05/22 02:41:42;;;;;;;5.20;1.27;;;;;;;;;;5072471;28;20204;-59
2021/05/22 02:44:09;;;;;;;3.33;1.50;;;;;;;;;;5072717;28;20286;-56
2021/05/22 02:46:38;;;;;;;5.37;1.30;;;;;;;;;;5072833;28;20221;-56
2021/05/22 02:49:06;;;;;;;5.07;1.10;;;;;;;;;;5072862;28;20270;-58
2021/05/22 02:51:34;;;;;;;5.50;1.60;;;;;;;;;;5072548;28;20201;-59
2021/05/22 02:54:01;;;;;;;4.57;1.60;;;;;;;;;;5072087;28;20209;-59
2021/05/22 02:56:29;;;;;;;4.40;1.47;;;;;;;;;;5072340;28;20259;-59
2021/05/22 02:58:56;;;;;;;6.33;1.20;;;;;;;;;;5072542;28;20209;-59
2021/05/22 03:01:24;;;;;;;4.13;1.30;;;;;;;;;;5072209;28;20240;-59
2021/05/22 03:03:51;;;;;;;7.77;1.53;;;;;;;;;;5072462;28;20327;-58
2021/05/22 03:06:17;;;;;;;3.80;1.83;;;;;;;;;;5071976;28;20220;-58
2021/05/22 03:08:46;;;;;;;6.37;1.70;;;;;;;;;;5072115;28;20216;-58
2021/05/22 03:11:12;;;;;;;5.83;1.57;;;;;;;;;;5071780;28;20696;-57
2021/05/22 03:13:39;;;;;;;4.80;1.30;;;;;;;;;;5072044;28;20673;-57
2021/05/22 03:16:06;;;;;;;3.70;1.20;;;;;;;;;;5072141;28;20217;-57
2021/05/22 03:18:32;;;;;;;3.40;1.20;;;;;;;;;;5072233;28;20200;-59
2021/05/22 03:20:59;;;;;;;10.40;1.43;;;;;;;;;;5071977;28;20255;-59
2021/05/22 03:23:25;;;;;;;4.77;1.20;;;;;;;;;;5071818;28;20204;-56
2021/05/22 03:25:53;;;;;;;7.37;1.63;;;;;;;;;;5072150;28;20283;-56
2021/05/22 03:28:20;;;;;;;4.93;1.53;;;;;;;;;;5072061;28;20209;-59
2021/05/22 03:30:46;;;;;;;6.07;1.40;;;;;;;;;;5072109;28;20210;-59
2021/05/22 03:33:13;;;;;;;4.13;1.20;;;;;;;;;;5071764;28;20262;-58
2021/05/22 03:35:39;;;;;;;3.83;1.23;;;;;;;;;;5071920;28;20224;-59
2021/05/22 03:38:06;;;;;;;6.47;1.40;;;;;;;;;;5071923;28;20208;-59
2021/05/22 03:40:32;;;;;;;7.77;1.00;;;;;;;;;;5072212;28;20210;-57
2021/05/22 03:43:00;;;;;;;7.37;1.83;;;;;;;;;;5072486;28;20209;-58
2021/05/22 03:45:26;;;;;;;6.53;1.40;;;;;;;;;;5072316;28;20232;-59
2021/05/22 03:47:53;;;;;;;8.10;1.50;;;;;;;;;;5072589;28;20213;-59
2021/05/22 03:50:19;;;;;;;5.47;1.30;;;;;;;;;;5071914;28;20208;-59
2021/05/22 03:52:46;;;;;;;4.90;1.40;;;;;;;;;;5071932;28;20204;-59
2021/05/22 03:55:13;;;;;;;6.90;1.40;;;;;;;;;;5071616;28;20225;-59
2021/05/22 03:57:39;;;;;;;7.77;1.47;;;;;;;;;;5071617;28;20716;-59
2021/05/22 04:00:09;;;;;;;3.57;1.27;;;;;;;;;;5071620;28;20254;-57
2021/05/22 04:02:35;;;;;;;5.67;1.30;;;;;;;;;;5071646;28;20205;-59
2021/05/22 04:05:02;;;;;;;7.27;1.67;;;;;;;;;;5071447;28;20224;-59
2021/05/22 04:07:29;;;;;;;5.23;1.30;;;;;;;;;;5071409;28;20209;-59
2021/05/22 04:09:55;;;;;;;6.30;1.67;;;;;;;;;;5071514;28;20207;-59
2021/05/22 04:12:22;;;;;;;7.67;1.30;;;;;;;;;;5071637;28;20258;-59
2021/05/22 04:14:48;;;;;;;4.67;1.70;;;;;;;;;;5071389;28;20228;-59
2021/05/22 04:17:15;;;;;;;5.40;1.27;;;;;;;;;;5071621;28;20208;-58
2021/05/22 04:19:42;;;;;;;7.37;1.50;;;;;;;;;;5071435;28;20209;-59
2021/05/22 04:22:08;;;;;;;5.97;1.50;;;;;;;;;;5071640;28;20201;-59
2021/05/22 04:24:36;;;;;;;7.23;1.77;;;;;;;;;;5075505;28;20221;-59
2021/05/22 04:27:03;;;;;;;3.30;1.33;;;;;;;;;;5075406;28;20270;-59
2021/05/22 04:29:30;;;;;;;4.50;1.30;;;;;;;;;;5075340;28;20205;-60
2021/05/22 04:31:56;;;;;;;4.47;1.53;;;;;;;;;;5074921;28;20209;-59
2021/05/22 04:34:24;;;;;;;4.50;1.20;;;;;;;;;;5074993;28;20229;-58
2021/05/22 04:36:50;;;;;;;4.63;1.30;;;;;;;;;;5075026;28;20202;-60
2021/05/22 04:39:17;;;;;;;6.23;1.10;;;;;;;;;;5075249;28;20608;-60
2021/05/22 04:41:43;;;;;;;6.53;1.60;;;;;;;;;;5075047;28;20258;-59
2021/05/22 04:44:10;;;;;;;5.63;1.70;;;;;;;;;;5075191;28;20228;-59
2021/05/22 04:46:37;;;;;;;5.07;1.50;;;;;;;;;;5074959;28;20604;-59
2021/05/22 04:49:04;;;;;;;7.20;1.60;;;;;;;;;;5075184;28;20213;-58
2021/05/22 04:51:31;;;;;;;6.57;1.60;;;;;;;;;;5074784;28;20298;-60
2021/05/22 04:54:01;;;;;;;7.20;2.10;;;;;;;;;;5075089;28;20205;-59
2021/05/22 04:56:28;;;;;;;10.57;1.50;;;;;;;;;;5075394;28;20205;-58
2021/05/22 04:58:54;;;;;;;4.07;1.40;;;;;;;;;;5074908;28;20209;-58
2021/05/22 05:01:21;;;;;;;5.37;1.60;;;;;;;;;;5074543;28;20201;-59
2021/05/22 05:03:47;;;;;;;6.53;1.47;;;;;;;;;;5074854;28;20322;-59
2021/05/22 05:06:14;;;;;;;5.63;1.83;;;;;;;;;;5075223;28;20601;-58
2021/05/22 05:08:41;;;;;;;8.37;2.00;;;;;;;;;;5075726;28;20201;-59
2021/05/22 05:11:08;;;;;;;4.60;1.30;;;;;;;;;;5074964;28;20213;-59
2021/05/22 05:13:34;;;;;;;6.47;1.73;;;;;;;;;;5074869;28;20212;-59
2021/05/22 05:16:01;;;;;;;3.90;1.50;;;;;;;;;;5074266;28;20221;-59
2021/05/22 05:18:27;;;;;;;6.20;1.60;;;;;;;;;;5074817;28;20213;-59
2021/05/22 05:20:54;;;;;;;9.07;1.57;;;;;;;;;;5074472;28;20209;-59
2021/05/22 05:23:22;;;;;;;5.43;1.60;;;;;;;;;;5074476;28;20224;-60
2021/05/22 05:25:51;;;;;;;13.70;1.53;;;;;;;;;;5074897;28;20232;-59
2021/05/22 05:28:18;;;;;;;6.23;2.10;;;;;;;;;;5074409;28;20205;-60
2021/05/22 05:30:44;;;;;;;8.93;1.60;;;;;;;;;;5074325;28;20213;-59
2021/05/22 05:33:11;;;;;;;3.93;1.50;;;;;;;;;;5073974;28;20213;-59
2021/05/22 05:35:37;;;;;;;7.37;1.70;;;;;;;;;;5074020;28;20267;-59
2021/05/22 05:38:04;;;;;;;6.83;1.80;;;;;;;;;;5073946;28;20270;-59
2021/05/22 05:40:30;;;;;;;6.47;1.97;;;;;;;;;;5073756;28;20747;-59
2021/05/22 05:42:57;;;;;;;5.93;1.53;;;;;;;;;;5073753;28;20201;-59
2021/05/22 05:45:24;;;;;;;4.97;1.63;;;;;;;;;;5073899;28;20229;-59
2021/05/22 05:47:53;;;;;;;8.27;1.80;;;;;;;;;;5074225;28;20201;-56
2021/05/22 05:50:19;;;;;;;8.60;1.97;;;;;;;;;;5073591;28;20211;-58
2021/05/22 05:52:46;;;;;;;7.80;1.93;;;;;;;;;;5073941;28;20228;-59
2021/05/22 05:55:13;;;;;;;6.00;1.93;;;;;;;;;;5073346;28;20229;-59
2021/05/22 05:57:39;;;;;;;5.60;1.53;;;;;;;;;;5073452;28;20342;-56
2021/05/22 06:00:07;;;;;;;4.83;1.70;;;;;;;;;;5073492;28;20205;-58
2021/05/22 06:02:34;;;;;;;4.00;1.50;;;;;;;;;;5073616;28;20217;-59
2021/05/22 06:05:00;;;;;;;6.77;1.77;;;;;;;;;;5073384;28;20225;-59
2021/05/22 06:07:27;;;;;;;6.67;2.50;;;;;;;;;;5073261;28;20205;-58
2021/05/22 06:09:53;;;;;;;9.40;1.73;;;;;;;;;;5073177;28;20220;-57
2021/05/22 06:12:20;;;;;;;8.63;1.80;;;;;;;;;;5073099;28;20600;-60
2021/05/22 06:14:50;;;;;;;9.10;2.33;;;;;;;;;;5073325;28;20225;-59
2021/05/22 06:17:18;;;;;;;6.97;1.77;;;;;;;;;;5073200;28;20259;-57
2021/05/22 06:19:44;;;;;;;5.30;1.60;;;;;;;;;;5072838;28;20681;-59
2021/05/22 06:22:11;;;;;;;7.73;2.23;;;;;;;;;;5072932;28;20223;-59
2021/05/22 06:24:37;;;;;;;7.10;2.07;;;;;;;;;;5072770;28;20236;-59
2021/05/22 06:27:04;;;;;;;7.57;1.47;;;;;;;;;;5073184;28;20236;-59
2021/05/22 06:29:31;;;;;;;5.43;1.73;;;;;;;;;;5073334;28;20261;-59
2021/05/22 06:31:57;;;;;;;8.53;1.80;;;;;;;;;;5073093;28;20209;-59
2021/05/22 06:34:25;;;;;;;5.87;1.77;;;;;;;;;;5073290;28;20233;-59
2021/05/22 06:36:53;;;;;;;4.90;1.53;;;;;;;;;;5072949;28;20201;-58
2021/05/22 06:39:19;;;;;;;10.07;1.90;;;;;;;;;;5073372;28;20204;-58
2021/05/22 06:41:46;;;;;;;8.93;1.80;;;;;;;;;;5072999;28;20204;-56
2021/05/22 06:44:19;;;;;;;7.50;1.47;;;;;;;;;;5072935;28;20290;-55
2021/05/22 06:46:48;;;;;;;6.23;1.40;;;;;;;;;;5072064;28;20336;-58
2021/05/22 06:49:15;;;;;;;5.67;1.63;;;;;;;;;;5072877;28;20288;-57
2021/05/22 06:51:43;;;;;;;5.43;1.70;;;;;;;;;;5072306;28;20205;-59
2021/05/22 06:54:09;;;;;;;7.87;2.17;;;;;;;;;;5072507;28;20249;-63
2021/05/22 06:56:36;;;;;;;8.03;2.27;;;;;;;;;;5072644;28;20210;-59
2021/05/22 06:59:03;;;;;;;3.63;1.40;;;;;;;;;;5072388;28;20204;-57
2021/05/22 07:01:29;;;;;;;6.77;1.53;;;;;;;;;;5072383;28;20286;-59
2021/05/22 07:03:57;;;;;;;6.27;1.40;;;;;;;;;;5072106;28;20209;-59
2021/05/22 07:06:24;;;;;;;4.87;1.77;;;;;;;;;;5072017;28;20697;-59
2021/05/22 07:08:54;;;;;;;5.73;2.00;;;;;;;;;;5072415;28;20201;-57
2021/05/22 07:11:21;;;;;;;8.93;1.80;;;;;;;;;;5072137;28;20204;-60
2021/05/22 07:13:47;;;;;;;4.83;2.00;;;;;;;;;;5072089;28;20764;-58
2021/05/22 07:16:14;;;;;;;5.97;1.80;;;;;;;;;;5071972;28;20209;-56
2021/05/22 07:18:40;;;;;;;6.00;1.77;;;;;;;;;;5072019;28;20583;-59
2021/05/22 07:21:07;;;;;;;5.23;2.27;;;;;;;;;;5071686;28;20210;-59
2021/05/22 07:23:33;;;;;;;3.60;1.40;;;;;;;;;;5072464;28;20375;-56
2021/05/22 07:26:01;;;;;;;4.93;1.63;;;;;;;;;;5072116;28;20233;-56
2021/05/22 07:28:30;;;;;;;6.60;1.87;;;;;;;;;;5072084;28;20208;-58
2021/05/22 07:30:59;;;;;;;7.17;1.70;;;;;;;;;;5071870;28;20243;-58
2021/05/22 07:33:25;;;;;;;4.37;1.67;;;;;;;;;;5071723;28;20247;-53
2021/05/22 07:35:52;;;;;;;6.57;1.60;;;;;;;;;;5072148;28;20244;-58
2021/05/22 07:38:18;;;;;;;8.80;1.70;;;;;;;;;;5072456;28;20681;-60
2021/05/22 07:40:45;;;;;;;7.47;2.03;;;;;;;;;;5072769;28;20212;-57
2021/05/22 07:43:12;;;;;;;6.73;1.50;;;;;;;;;;5071827;28;20236;-56
2021/05/22 07:45:39;;;;;;;5.67;1.50;;;;;;;;;;5073155;28;20228;-58
2021/05/22 07:48:05;;;;;;;6.00;1.67;;;;;;;;;;5073806;28;20206;-59
2021/05/22 07:50:32;;;;;;;3.43;1.40;;;;;;;;;;5073751;28;20211;-58
2021/05/22 07:52:59;;;;;;;6.73;1.60;;;;;;;;;;5071969;28;20219;-59
2021/05/22 07:55:26;;;;;;;3.73;1.37;;;;;;;;;;5071610;28;20252;-60
2021/05/22 07:57:52;;;;;;;5.43;1.30;;;;;;;;;;5074933;28;20205;-60
2021/05/22 08:00:20;;;;;;;3.37;1.10;;;;;;;;;;5075795;28;20211;-59
2021/05/22 08:02:47;;;;;;;5.63;1.40;;;;;;;;;;5076060;28;20222;-60
2021/05/22 08:05:14;;;;;;;5.93;1.17;;;;;;;;;;5075786;28;20234;-58
2021/05/22 08:07:40;;;;;;;2.80;1.00;;;;;;;;;;5075597;28;20205;-58
2021/05/22 08:10:07;;;;;;;4.77;1.37;;;;;;;;;;5075549;28;20207;-61
2021/05/22 08:12:34;;;;;;;5.63;1.60;;;;;;;;;;5072635;28;20297;-57
2021/05/22 08:15:00;;;;;;;2.97;1.43;;;;;;;;;;5074656;28;20228;-59
2021/05/22 08:17:28;;;;;;;5.23;1.23;;;;;;;;;;5075664;28;20769;-58
2021/05/22 08:19:54;;;;;;;4.67;1.50;;;;;;;;;;5075391;28;20201;-57
2021/05/22 08:22:21;;;;;;;5.27;1.43;;;;;;;;;;5075540;28;20205;-58
2021/05/22 08:24:47;;;;;;;3.50;1.10;;;;;;;;;;5075336;28;20599;-59
2021/05/22 08:27:14;;;;;;;4.07;1.07;;;;;;;;;;5075148;28;20236;-59
2021/05/22 08:29:41;;;;;;;1.97;0.93;;;;;;;;;;5074751;28;20581;-59
2021/05/22 08:32:07;;;;;;;4.40;1.20;;;;;;;;;;5075227;28;20216;-57
2021/05/22 08:34:39;;;;;;;3.27;1.07;;;;;;;;;;5075369;28;20279;-61
2021/05/22 08:37:05;;;;;;;5.47;1.50;;;;;;;;;;5075522;28;20213;-58
2021/05/22 08:39:32;;;;;;;5.57;1.30;;;;;;;;;;5075351;28;20208;-61
2021/05/22 08:41:58;;;;;;;3.33;1.30;;;;;;;;;;5074602;28;20201;-59
2021/05/22 08:44:25;;;;;;;5.77;1.30;;;;;;;;;;5074906;28;20226;-59
2021/05/22 08:46:52;;;;;;;7.10;1.63;;;;;;;;;;5070679;28;20709;-58
2021/05/22 08:49:18;;;;;;;6.43;1.60;;;;;;;;;;5074711;28;20200;-57
2021/05/22 08:51:46;;;;;;;7.03;1.70;;;;;;;;;;5075246;28;20209;-55
2021/05/22 08:54:12;;;;;;;6.77;1.50;;;;;;;;;;5075421;28;20303;-57
2021/05/22 08:56:39;;;;;;;9.53;1.90;;;;;;;;;;5074011;28;20665;-57
2021/05/22 08:59:06;;;;;;;6.17;1.37;;;;;;;;;;5074012;28;20266;-58
2021/05/22 09:01:33;;;;;;;6.47;2.00;;;;;;;;;;5074338;28;20209;-57
2021/05/22 09:03:59;;;;;;;3.47;1.60;;;;;;;;;;5074308;28;20205;-59
2021/05/22 09:06:26;;;;;;;4.77;1.90;;;;;;;;;;5074111;28;20383;-58
2021/05/22 09:09:00;;;;;;;4.17;1.53;;;;;;;;;;5073471;28;20205;-57
2021/05/22 09:11:27;;;;;;;7.13;1.70;;;;;;;;;;5073554;28;20209;-55
2021/05/22 09:13:53;;;;;;;4.67;2.00;;;;;;;;;;5074105;28;20271;-56
2021/05/22 09:16:21;;;;;;;3.27;1.67;;;;;;;;;;5073942;28;20250;-58
2021/05/22 09:18:48;;;;;;;5.10;1.40;;;;;;;;;;5073895;28;20216;-58
2021/05/22 09:21:15;;;;;;;5.57;1.77;;;;;;;;;;5073499;28;20737;-58
2021/05/22 09:23:43;;;;;;;3.67;1.30;;;;;;;;;;5073724;28;20228;-58
2021/05/22 09:26:12;;;;;;;4.53;1.37;;;;;;;;;;5073975;28;20279;-61
2021/05/22 09:28:42;;;;;;;6.00;1.73;;;;;;;;;;5073528;28;20231;-58
2021/05/22 09:31:12;;;;;;;6.83;1.67;;;;;;;;;;5073693;28;20645;-59
2021/05/22 09:33:38;;;;;;;4.87;1.53;;;;;;;;;;5073858;28;20247;-54
2021/05/22 09:36:07;;;;;;;4.23;1.63;;;;;;;;;;5073397;28;20221;-55
2021/05/22 09:38:34;;;;;;;6.47;1.90;;;;;;;;;;5072711;28;20725;-58
2021/05/22 09:41:01;;;;;;;4.20;1.63;;;;;;;;;;5073092;28;20209;-59
2021/05/22 09:43:28;;;;;;;12.30;4.27;;;;;;;;;;5073563;28;20673;-60
2021/05/22 09:45:55;;;;;;;3.80;1.87;;;;;;;;;;5073072;28;20225;-60
2021/05/22 09:48:25;;;;;;;6.83;2.20;;;;;;;;;;5073195;28;20201;-65
2021/05/22 09:50:52;;;;;;;7.20;2.10;;;;;;;;;;5072922;28;20668;-62
2021/05/22 09:53:37;;;;;;;10.30;3.00;;;;;;;;;;5073881;28;20233;-63
2021/05/22 09:56:17;;;;;;;4.67;1.90;;;;;;;;;;5073089;28;20233;-63
2021/05/22 09:58:45;;;;;;;4.43;1.70;;;;;;;;;;5073296;28;20204;-63
2021/05/22 10:01:12;;;;;;;4.70;1.53;;;;;;;;;;5072867;28;20260;-63
2021/05/22 10:03:39;;;;;;;6.03;1.33;;;;;;;;;;5073333;28;20295;-64
2021/05/22 10:06:06;;;;;;;3.83;1.57;;;;;;;;;;5072911;28;20229;-63
2021/05/22 10:08:32;;;;;;;5.13;1.80;;;;;;;;;;5073164;28;20211;-63
2021/05/22 10:10:59;;;;;;;9.53;2.50;;;;;;;;;;5073055;28;20212;-62
2021/05/22 10:13:26;;;;;;;8.87;2.13;;;;;;;;;;5073104;28;20207;-63
2021/05/22 10:15:54;;;;;;;3.37;1.63;;;;;;;;;;5072554;28;20227;-63
2021/05/22 10:18:21;;;;;;;7.30;2.50;;;;;;;;;;5072858;28;20210;-62
2021/05/22 10:20:48;;;;;;;6.90;1.90;;;;;;;;;;5071841;28;20204;-63
2021/05/22 10:23:14;;;;;;;7.57;1.73;;;;;;;;;;5073121;28;20267;-63
2021/05/22 10:25:41;;;;;;;9.90;3.13;;;;;;;;;;5072145;28;20232;-62
2021/05/22 10:28:09;;;;;;;6.60;2.00;;;;;;;;;;5071781;28;20210;-62
2021/05/22 10:30:36;;;;;;;5.67;1.73;;;;;;;;;;5071495;28;20237;-64
2021/05/22 10:33:04;;;;;;;4.03;1.80;;;;;;;;;;5072433;28;20211;-64
2021/05/22 10:35:40;;;;;;;4.97;1.83;;;;;;;;;;5072208;28;20229;-64
2021/05/22 10:38:06;;;;;;;5.37;1.60;;;;;;;;;;5071830;28;20237;-67
2021/05/22 10:40:44;;;;;;;6.07;1.70;;;;;;;;;;5071159;28;20213;-62
2021/05/22 10:43:11;;;;;;;4.63;2.00;;;;;;;;;;5070860;28;20301;-62
2021/05/22 10:45:39;;;;;;;6.43;1.90;;;;;;;;;;5071443;28;20231;-63
2021/05/22 10:48:07;;;;;;;10.53;2.30;;;;;;;;;;5071655;28;20212;-63
2021/05/22 10:50:42;;;;;;;5.73;1.77;;;;;;;;;;5071193;28;20223;-64
2021/05/22 10:53:19;;;;;;;7.20;2.23;;;;;;;;;;5071506;28;20224;-63
2021/05/22 10:55:45;;;;;;;6.97;2.10;;;;;;;;;;5070995;28;20235;-62
2021/05/22 10:58:12;;;;;;;5.50;2.23;;;;;;;;;;5070319;28;20211;-66
2021/05/22 11:00:39;;;;;;;6.80;2.23;;;;;;;;;;5070570;28;20206;-66
2021/05/22 11:03:10;;;;;;;6.63;1.73;;;;;;;;;;5071082;28;20216;-62
2021/05/22 11:05:38;;;;;;;9.37;2.27;;;;;;;;;;5071267;28;20253;-62
2021/05/22 11:08:23;;;;;;;7.53;2.17;;;;;;;;;;5070734;28;20206;-67
2021/05/22 11:10:58;;;;;;;8.80;2.20;;;;;;;;;;5069965;28;20211;-63
2021/05/22 11:13:41;;;;;;;5.63;2.00;;;;;;;;;;5070797;28;20683;-65
2021/05/22 11:16:08;;;;;;;6.53;2.20;;;;;;;;;;5070562;28;20222;-61
2021/05/22 11:18:54;;;;;;;8.23;2.37;;;;;;;;;;5070651;28;20279;-66
2021/05/22 11:21:22;;;;;;;5.37;2.37;;;;;;;;;;5070832;28;20215;-66
2021/05/22 11:24:08;;;;;;;4.60;2.53;;;;;;;;;;5070804;28;20706;-65
2021/05/22 11:26:56;;;;;;;3.90;2.30;;;;;;;;;;5070638;28;20313;-65
2021/05/22 11:29:23;;;;;;;7.93;2.97;;;;;;;;;;5071026;28;20291;-62
2021/05/22 11:31:50;;;;;;;6.30;2.40;;;;;;;;;;5070839;28;20201;-61
2021/05/22 11:34:29;;;;;;;7.20;2.70;;;;;;;;;;5071065;28;20233;-61
2021/05/22 11:37:14;;;;;;;7.70;2.47;;;;;;;;;;5071748;28;20244;-59
2021/05/22 11:39:42;;;;;;;5.47;2.20;;;;;;;;;;5074285;28;20281;-66
2021/05/22 11:42:23;;;;;;;4.97;2.27;;;;;;;;;;5080377;28;20680;-64
2021/05/22 11:44:53;;;;;;;7.23;2.40;;;;;;;;;;5073266;28;20656;-64
2021/05/22 11:47:20;;;;;;;6.50;2.27;;;;;;;;;;5072764;28;20228;-63
2021/05/22 11:49:47;;;;;;;8.23;2.00;;;;;;;;;;5080703;28;20203;-62
2021/05/22 11:52:26;;;;;;;6.10;2.10;;;;;;;;;;5080002;28;20207;-63
2021/05/22 11:54:53;;;;;;;8.47;2.07;;;;;;;;;;5074949;28;20242;-63
2021/05/22 11:57:20;;;;;;;7.67;2.00;;;;;;;;;;5070787;28;20558;-62
2021/05/22 11:59:46;;;;;;;7.47;2.23;;;;;;;;;;5071062;28;20219;-64
2021/05/22 12:02:13;;;;;;;5.37;2.30;;;;;;;;;;5070895;28;20212;-62
2021/05/22 12:04:49;;;;;;;8.13;2.33;;;;;;;;;;5071329;28;20231;-63
2021/05/22 12:07:16;;;;;;;11.30;2.67;;;;;;;;;;5071080;28;20304;-62
2021/05/22 12:09:42;;;;;;;9.20;2.47;;;;;;;;;;5070977;28;20209;-62
2021/05/22 12:12:12;;;;;;;8.37;2.47;;;;;;;;;;5070853;28;20213;-62
2021/05/22 12:14:39;;;;;;;8.03;2.50;;;;;;;;;;5070254;28;20239;-62
2021/05/22 12:17:06;;;;;;;9.47;2.10;;;;;;;;;;5070975;28;20267;-62
2021/05/22 12:19:34;;;;;;;10.77;2.63;;;;;;;;;;5071268;28;20236;-62
2021/05/22 12:22:00;;;;;;;5.97;2.27;;;;;;;;;;5070874;28;20219;-62
2021/05/22 12:24:27;;;;;;;6.87;2.93;;;;;;;;;;5070641;28;20720;-62
2021/05/22 12:26:55;;;;;;;7.23;2.20;;;;;;;;;;5070447;28;20242;-62
2021/05/22 12:29:22;;;;;;;7.80;2.40;;;;;;;;;;5070538;28;20704;-62
2021/05/22 12:31:53;;;;;;;10.50;2.40;;;;;;;;;;5070808;28;20217;-65
2021/05/22 12:34:30;;;;;;;6.37;2.40;;;;;;;;;;5070449;28;20290;-63
2021/05/22 12:36:57;;;;;;;7.60;2.80;;;;;;;;;;5070215;28;20198;-62
2021/05/22 12:39:30;;;;;;;8.37;2.50;;;;;;;;;;5070835;28;20695;-62
2021/05/22 12:41:56;;;;;;;9.23;2.73;;;;;;;;;;5070090;28;20233;-62
2021/05/22 12:44:24;;;;;;;7.30;2.43;;;;;;;;;;5072532;28;20232;-62
2021/05/22 12:46:54;;;;;;;5.97;2.17;;;;;;;;;;5073872;28;20227;-62
2021/05/22 12:49:21;;;;;;;9.13;2.77;;;;;;;;;;5081572;28;20207;-62
2021/05/22 12:51:59;;;;;;;7.33;2.50;;;;;;;;;;5093779;28;20227;-62
2021/05/22 12:54:30;;;;;;;12.00;2.90;;;;;;;;;;5093241;28;20285;-61
2021/05/22 12:56:57;;;;;;;5.50;2.57;;;;;;;;;;5093673;28;20291;-61
2021/05/22 12:59:24;;;;;;;8.87;2.80;;;;;;;;;;5093736;28;20208;-62
2021/05/22 13:02:06;;;;;;;4.67;2.40;;;;;;;;;;5093536;28;20559;-61
2021/05/22 13:04:32;;;;;;;6.13;2.63;;;;;;;;;;5092195;28;20224;-60
2021/05/22 13:06:59;;;;;;;7.63;2.77;;;;;;;;;;5093978;28;20258;-59
2021/05/22 13:09:25;;;;;;;3.60;2.40;;;;;;;;;;5098519;28;20211;-62
2021/05/22 13:11:56;;;;;;;8.60;3.53;;;;;;;;;;5098179;28;20200;-63
2021/05/22 13:14:22;;;;;;;6.43;2.90;;;;;;;;;;5093132;28;20225;-66
2021/05/22 13:16:56;;;;;;;8.37;3.10;;;;;;;;;;5076671;28;20205;-64
2021/05/22 13:19:38;;;;;;;8.70;3.37;;;;;;;;;;5077045;28;20207;-64
2021/05/22 13:22:19;;;;;;;8.33;3.40;;;;;;;;;;5077459;28;20209;-65
2021/05/22 13:24:57;;;;;;;6.00;3.07;;;;;;;;;;5077614;28;20227;-62
2021/05/22 13:27:24;;;;;;;7.53;3.30;;;;;;;;;;5077676;28;20285;-59
2021/05/22 13:29:54;;;;;;;7.80;3.63;;;;;;;;;;5079975;28;20208;-61
2021/05/22 13:32:21;;;;;;;8.73;3.40;;;;;;;;;;5075352;28;20226;-62
2021/05/22 13:34:50;;;;;;;7.87;3.43;;;;;;;;;;5073846;28;20232;-64
2021/05/22 13:37:16;;;;;;;9.80;3.27;;;;;;;;;;5073045;28;20283;-64
2021/05/22 13:39:43;;;;;;;13.63;3.40;;;;;;;;;;5073045;28;20300;-64
2021/05/22 13:42:10;;;;;;;9.03;3.30;;;;;;;;;;5073101;28;20215;-65
2021/05/22 13:44:36;;;;;;;11.47;3.73;;;;;;;;;;5072548;28;20755;-64
2021/05/22 13:47:03;;;;;;;12.40;3.60;;;;;;;;;;5071329;28;20260;-64
2021/05/22 13:49:30;;;;;;;10.03;4.23;;;;;;;;;;5073029;28;20265;-64
2021/05/22 13:51:57;;;;;;;6.80;3.23;;;;;;;;;;5071916;28;20211;-63
2021/05/22 13:54:24;;;;;;;8.40;3.83;;;;;;;;;;5072060;28;20245;-63
2021/05/22 13:56:50;;;;;;;11.27;3.67;;;;;;;;;;5072286;28;20200;-64
2021/05/22 13:59:17;;;;;;;10.60;4.07;;;;;;;;;;5072965;28;20556;-64
2021/05/22 14:01:44;;;;;;;6.73;3.83;;;;;;;;;;5073378;28;20213;-64
2021/05/22 14:04:10;;;;;;;11.30;3.67;;;;;;;;;;5071991;28;20236;-65
2021/05/22 14:06:37;;;;;;;13.50;4.10;;;;;;;;;;5072235;28;20225;-63
2021/05/22 14:09:05;;;;;;;9.90;3.77;;;;;;;;;;5072172;28;20208;-65
2021/05/22 14:11:31;;;;;;;8.97;3.63;;;;;;;;;;5072462;28;20214;-67
2021/05/22 14:13:58;;;;;;;9.87;3.20;;;;;;;;;;5072021;28;20255;-66
2021/05/22 14:16:24;;;;;;;8.37;3.10;;;;;;;;;;5072263;28;20262;-67
2021/05/22 14:18:51;;;;;;;4.70;2.90;;;;;;;;;;5071019;28;20597;-66
2021/05/22 14:21:17;;;;;;;4.63;2.50;;;;;;;;;;5071796;28;20208;-65
2021/05/22 14:23:45;;;;;;;4.77;2.23;;;;;;;;;;5072213;28;20211;-62
2021/05/22 14:26:11;;;;;;;7.67;2.13;;;;;;;;;;5072403;28;20251;-61
2021/05/22 14:28:43;;;;;;;5.93;2.97;;;;;;;;;;5072106;28;20700;-61
2021/05/22 14:31:10;;;;;;;3.77;2.40;;;;;;;;;;5072142;28;20295;-62
2021/05/22 14:33:36;;;;;;;7.13;2.70;;;;;;;;;;5072309;28;20269;-61
2021/05/22 14:36:04;;;;;;;3.83;2.20;;;;;;;;;;5070224;28;20227;-62
2021/05/22 14:38:31;;;;;;;4.60;2.53;;;;;;;;;;5071109;28;20632;-62
2021/05/22 14:40:59;;;;;;;6.40;2.93;;;;;;;;;;5072182;28;20204;-64
2021/05/22 14:43:25;;;;;;;6.90;2.90;;;;;;;;;;5072817;28;20296;-66
2021/05/22 14:45:53;;;;;;;4.20;2.67;;;;;;;;;;5071792;28;20224;-65
2021/05/22 14:48:21;;;;;;;4.57;2.47;;;;;;;;;;5072002;28;20211;-64